Time;durP1;ratioP1;P1;durP2;ratioP2;P2;SDS_P1;SDS_P2;PMS_P1;PMS_P2;Temp;Humidity;BMP_temperature;BMP_pressure;BME280_temperature;BME280_humidity;BME280_pressure;Samples;Min_cycle;Max_cycle;Signal;HPM_P1;HPM_P2
2024/01/26 00:00:54;;;;;;;1.48;0.77;;;8.30;99.90;;;7.63;100.00;98249.53;5044311;28;20040;-38
2024/01/26 00:03:19;;;;;;;1.65;0.82;;;8.30;99.90;;;7.64;100.00;98259.13;5047729;28;20025;-38
2024/01/26 00:05:45;;;;;;;2.03;0.90;;;8.20;99.90;;;7.63;100.00;98267.91;5045162;28;20044;-38
2024/01/26 00:08:15;;;;;;;0.77;0.75;;;8.20;99.90;;;7.64;100.00;98264.38;5041242;28;20028;-38
2024/01/26 00:10:40;;;;;;;1.40;0.85;;;8.20;99.90;;;7.64;100.00;98256.50;5043195;28;20033;-38
2024/01/26 00:13:06;;;;;;;0.90;0.73;;;8.30;99.90;;;7.72;100.00;98264.31;5041019;28;20079;-38
2024/01/26 00:15:32;;;;;;;1.50;0.93;;;8.30;99.90;;;7.74;100.00;98257.28;5043020;28;20374;-39
2024/01/26 00:17:58;;;;;;;2.75;0.82;;;8.30;99.90;;;7.80;100.00;98251.94;5037358;28;20036;-39
2024/01/26 00:20:23;;;;;;;1.25;1.00;;;8.40;99.90;;;7.81;100.00;98253.69;5046435;28;20074;-39
2024/01/26 00:22:49;;;;;;;1.10;0.80;;;8.40;99.90;;;7.84;100.00;98253.66;5047211;28;20047;-38
2024/01/26 00:25:15;;;;;;;1.35;0.90;;;8.40;99.90;;;7.82;100.00;98242.28;5040196;28;20032;-38
2024/01/26 00:27:40;;;;;;;2.15;0.98;;;8.50;99.90;;;7.91;100.00;98241.31;5044472;28;20109;-38
2024/01/26 00:30:07;;;;;;;1.40;1.00;;;8.50;99.90;;;7.94;100.00;98250.03;5061141;28;20469;-38
2024/01/26 00:32:33;;;;;;;1.25;0.90;;;8.50;99.90;;;7.94;100.00;98250.03;5047508;28;20028;-38
2024/01/26 00:34:58;;;;;;;2.05;0.90;;;8.50;99.90;;;7.92;100.00;98250.94;5038885;28;20044;-39
2024/01/26 00:37:24;;;;;;;2.05;1.08;;;8.50;99.90;;;7.94;100.00;98257.91;5042411;28;20550;-39
2024/01/26 00:39:50;;;;;;;1.20;0.80;;;8.50;99.90;;;7.92;100.00;98253.56;5040346;28;20040;-39
2024/01/26 00:42:15;;;;;;;2.70;1.10;;;8.50;99.90;;;7.89;100.00;98245.72;5038235;28;20032;-39
2024/01/26 00:44:41;;;;;;;1.58;0.93;;;8.60;99.90;;;7.97;100.00;98267.53;5042769;28;20044;-39
2024/01/26 00:47:08;;;;;;;1.35;1.10;;;8.60;99.90;;;8.03;100.00;98262.16;5040015;28;20123;-39
2024/01/26 00:49:33;;;;;;;1.48;0.88;;;8.60;99.90;;;8.00;100.00;98257.84;5045713;28;20024;-39
2024/01/26 00:51:59;;;;;;;1.60;0.80;;;8.60;99.90;;;8.03;100.00;98262.16;5038076;28;20064;-39
2024/01/26 00:54:25;;;;;;;2.10;0.80;;;8.60;99.90;;;8.03;100.00;98257.78;5044525;28;20411;-39
2024/01/26 00:56:51;;;;;;;2.10;1.02;;;8.60;99.90;;;8.05;100.00;98255.13;5045390;28;20036;-39
2024/01/26 00:59:16;;;;;;;0.77;0.70;;;8.60;99.90;;;8.01;100.00;98264.81;5043546;28;20056;-39
2024/01/26 01:01:42;;;;;;;0.60;0.52;;;8.60;99.90;;;8.05;100.00;98267.41;5047927;28;20028;-39
2024/01/26 01:04:08;;;;;;;1.30;0.70;;;8.60;99.90;;;8.04;100.00;98271.81;5038301;28;20056;-39
2024/01/26 01:06:34;;;;;;;0.60;0.47;;;8.60;99.90;;;8.09;100.00;98271.72;5048706;28;20079;-38
2024/01/26 01:08:59;;;;;;;1.27;0.65;;;8.70;99.90;;;8.08;100.00;98265.63;5045389;28;20041;-38
2024/01/26 01:11:25;;;;;;;1.42;0.80;;;8.70;99.90;;;8.06;100.00;98270.03;5051445;28;20024;-38
2024/01/26 01:13:51;;;;;;;0.52;0.52;;;8.70;99.90;;;8.00;100.00;98268.34;5048699;28;20089;-38
2024/01/26 01:16:18;;;;;;;1.67;0.85;;;8.60;99.90;;;8.09;100.00;98275.22;5049436;28;20068;-39
2024/01/26 01:18:44;;;;;;;1.10;0.80;;;8.60;99.90;;;8.07;100.00;98279.63;5045971;28;20044;-38
2024/01/26 01:21:09;;;;;;;2.90;0.63;;;8.60;99.90;;;8.09;100.00;98283.09;5039398;28;20380;-39
2024/01/26 01:23:36;;;;;;;1.15;0.60;;;8.60;99.90;;;8.01;100.00;98271.84;5044063;28;20063;-38
2024/01/26 01:26:01;;;;;;;1.85;0.75;;;8.70;99.90;;;7.97;100.00;98259.63;5043518;28;20028;-39
2024/01/26 01:28:28;;;;;;;1.92;0.77;;;8.70;99.90;;;8.00;100.00;98260.47;5062559;28;20032;-38
2024/01/26 01:30:53;;;;;;;1.00;0.73;;;8.60;99.90;;;8.07;100.00;98281.38;5044385;28;20044;-39
2024/01/26 01:33:19;;;;;;;0.80;0.70;;;8.60;99.90;;;8.07;100.00;98274.38;5044603;28;20032;-38
2024/01/26 01:35:45;;;;;;;0.95;0.60;;;8.60;99.90;;;8.01;100.00;98274.47;5044952;28;20036;-39
2024/01/26 01:38:10;;;;;;;1.88;0.60;;;8.60;99.90;;;7.97;100.00;98264.88;5043250;28;20050;-39
2024/01/26 01:40:36;;;;;;;1.27;0.50;;;8.60;99.90;;;7.99;100.00;98269.22;5063686;28;20032;-39
2024/01/26 01:43:02;;;;;;;0.85;0.60;;;8.60;99.90;;;8.03;100.00;98267.44;5042660;28;20048;-39
2024/01/26 01:45:28;;;;;;;0.82;0.60;;;8.60;99.90;;;7.92;100.00;98266.69;5048112;28;20060;-38
2024/01/26 01:47:54;;;;;;;0.55;0.47;;;8.60;99.90;;;7.97;100.00;98267.53;5053434;28;20222;-38
2024/01/26 01:50:20;;;;;;;0.50;0.47;;;8.50;99.90;;;7.87;100.00;98269.38;5050386;28;21736;-39
2024/01/26 01:52:48;;;;;;;0.60;0.40;;;8.50;99.90;;;7.77;100.00;98252.88;5046886;28;20127;-39
2024/01/26 01:55:15;;;;;;;0.80;0.50;;;8.40;99.90;;;7.77;100.00;98254.59;5046178;28;20405;-38
2024/01/26 01:57:42;;;;;;;1.33;0.60;;;8.40;99.90;;;7.71;100.00;98255.56;5060750;28;20175;-38
2024/01/26 02:00:15;;;;;;;0.43;0.43;;;8.30;99.90;;;7.68;100.00;98260.88;5048453;28;20024;-39
2024/01/26 02:02:46;;;;;;;0.85;0.50;;;8.30;99.90;;;7.64;100.00;98256.50;5051273;28;20481;-39
2024/01/26 02:05:14;;;;;;;0.85;0.55;;;8.30;99.90;;;7.61;100.00;98267.06;5049186;28;20143;-39
2024/01/26 02:07:40;;;;;;;1.00;0.50;;;8.20;99.90;;;7.51;100.00;98249.69;5055569;28;20112;-39
2024/01/26 02:10:12;;;;;;;1.38;0.60;;;8.20;99.90;;;7.54;100.00;98253.13;5052243;28;20163;-39
2024/01/26 02:12:38;;;;;;;1.02;0.80;;;8.20;99.90;;;7.53;100.00;98258.41;5045430;28;20555;-38
2024/01/26 02:15:07;;;;;;;0.45;0.45;;;8.10;99.90;;;7.50;100.00;98261.94;5045177;28;20047;-39
2024/01/26 02:17:34;;;;;;;0.60;0.60;;;8.10;99.90;;;7.49;100.00;98261.94;5048376;28;20097;-38
2024/01/26 02:20:00;;;;;;;1.23;0.70;;;8.10;99.90;;;7.45;100.00;98267.22;5052020;28;20413;-39
2024/01/26 02:22:26;;;;;;;1.20;0.57;;;8.10;99.90;;;7.44;100.00;98268.09;5053476;28;20043;-38
2024/01/26 02:24:52;;;;;;;0.88;0.57;;;8.00;99.90;;;7.35;100.00;98248.97;5046719;28;20040;-38
2024/01/26 02:27:21;;;;;;;1.17;0.60;;;8.00;99.90;;;7.40;100.00;98268.16;5042194;28;20368;-38
2024/01/26 02:29:47;;;;;;;0.57;0.57;;;8.00;99.90;;;7.39;100.00;98266.41;5043387;28;20044;-38
2024/01/26 02:32:13;;;;;;;0.60;0.40;;;8.00;99.90;;;7.35;100.00;98259.47;5044594;28;20389;-38
2024/01/26 02:34:38;;;;;;;0.60;0.50;;;7.90;99.90;;;7.36;100.00;98258.59;5032322;28;20032;-38
2024/01/26 02:37:04;;;;;;;1.35;0.60;;;8.00;99.90;;;7.35;100.00;98262.09;5042232;28;20024;-38
2024/01/26 02:39:32;;;;;;;0.45;0.40;;;7.90;99.90;;;7.31;100.00;98256.00;5043162;28;20040;-38
2024/01/26 02:41:58;;;;;;;0.65;0.50;;;7.90;99.90;;;7.32;100.00;98265.63;5045420;28;20032;-39
2024/01/26 02:44:24;;;;;;;0.50;0.40;;;7.90;99.90;;;7.30;100.00;98262.13;5044376;28;20082;-39
2024/01/26 02:46:49;;;;;;;0.82;0.60;;;7.90;99.90;;;7.27;100.00;98256.94;5044311;28;20025;-38
2024/01/26 02:49:16;;;;;;;0.45;0.40;;;7.90;99.90;;;7.25;100.00;98256.94;5039444;28;20029;-38
2024/01/26 02:51:42;;;;;;;0.40;0.40;;;7.90;99.90;;;7.26;100.00;98260.41;5045747;28;20640;-39
2024/01/26 02:54:08;;;;;;;1.23;0.60;;;7.90;99.90;;;7.21;100.00;98255.22;5046209;28;20032;-38
2024/01/26 02:56:34;;;;;;;2.28;0.50;;;7.80;99.90;;;7.24;100.00;98256.94;5050059;28;20098;-39
2024/01/26 02:58:59;;;;;;;0.30;0.30;;;7.80;99.90;;;7.24;100.00;98249.94;5045125;28;20090;-38
2024/01/26 03:01:25;;;;;;;0.40;0.40;;;7.80;99.90;;;7.23;100.00;98249.94;5049167;28;20485;-38
2024/01/26 03:03:51;;;;;;;1.17;0.60;;;7.80;99.90;;;7.19;100.00;98254.34;5050478;28;20040;-39
2024/01/26 03:06:18;;;;;;;0.68;0.40;;;7.80;99.90;;;7.22;100.00;98269.22;5049964;28;20388;-38
2024/01/26 03:08:43;;;;;;;0.45;0.45;;;7.80;99.90;;;7.20;100.00;98269.22;5052319;28;20776;-38
2024/01/26 03:11:12;;;;;;;0.32;0.30;;;7.80;99.90;;;7.20;100.00;98256.09;5048037;28;20044;-38
2024/01/26 03:13:39;;;;;;;0.95;0.47;;;7.80;99.90;;;7.07;100.00;98238.75;5049421;28;20119;-38
2024/01/26 03:16:05;;;;;;;0.40;0.40;;;7.80;99.90;;;7.21;100.00;98256.97;5047183;28;20040;-38
2024/01/26 03:18:31;;;;;;;0.82;0.50;;;7.80;99.90;;;7.15;100.00;98246.53;5048354;28;20066;-38
2024/01/26 03:20:57;;;;;;;0.55;0.43;;;7.80;99.90;;;7.21;100.00;98254.34;5067623;28;20678;-38
2024/01/26 03:23:22;;;;;;;2.15;0.60;;;7.80;99.90;;;7.20;100.00;98255.25;5046387;28;20389;-38
2024/01/26 03:25:48;;;;;;;0.80;0.50;;;7.80;99.90;;;7.24;100.00;98257.81;5050123;28;20029;-38
2024/01/26 03:28:14;;;;;;;0.60;0.35;;;7.80;99.90;;;7.20;100.00;98244.75;5047922;28;20048;-38
2024/01/26 03:30:40;;;;;;;0.40;0.40;;;7.90;99.90;;;7.24;100.00;98249.94;5062378;28;20040;-38
2024/01/26 03:33:07;;;;;;;1.65;0.40;;;7.90;99.90;;;7.25;100.00;98251.69;5038284;28;20067;-38
2024/01/26 03:35:33;;;;;;;0.35;0.32;;;7.80;99.90;;;7.25;100.00;98248.19;5047570;28;20056;-38
2024/01/26 03:37:59;;;;;;;0.45;0.30;;;7.80;99.90;;;7.22;100.00;98248.22;5062046;28;20028;-39
2024/01/26 03:40:25;;;;;;;0.40;0.40;;;7.80;99.90;;;7.18;100.00;98250.00;5044399;28;20624;-39
2024/01/26 03:42:51;;;;;;;0.43;0.40;;;7.80;99.90;;;7.22;100.00;98254.34;5045520;28;20033;-38
2024/01/26 03:45:17;;;;;;;0.60;0.32;;;7.80;99.90;;;7.23;100.00;98265.69;5041865;28;20039;-38
2024/01/26 03:47:42;;;;;;;0.70;0.52;;;7.80;99.90;;;7.21;100.00;98263.09;5044168;28;20037;-39
2024/01/26 03:50:09;;;;;;;0.50;0.50;;;7.80;99.90;;;7.22;100.00;98271.84;5050099;28;20032;-39
2024/01/26 03:52:34;;;;;;;0.57;0.40;;;7.80;99.90;;;7.23;100.00;98263.97;5048249;28;20119;-39
2024/01/26 03:55:02;;;;;;;0.77;0.50;;;7.80;99.90;;;7.20;100.00;98257.88;5058026;28;20835;-39
2024/01/26 03:57:27;;;;;;;0.68;0.50;;;7.80;99.90;;;7.17;100.00;98269.25;5019695;28;20548;-39
2024/01/26 03:59:54;;;;;;;1.25;0.50;;;7.80;99.90;;;7.15;100.00;98278.03;5047694;28;20492;-38
2024/01/26 04:02:20;;;;;;;0.98;0.60;;;7.80;99.90;;;7.13;100.00;98269.31;5037600;28;20036;-38
2024/01/26 04:04:45;;;;;;;0.73;0.40;;;7.70;99.90;;;7.12;100.00;98273.66;5043536;28;20043;-38
2024/01/26 04:07:11;;;;;;;1.08;0.70;;;7.70;99.90;;;7.10;100.00;98272.81;5040648;28;20411;-38
2024/01/26 04:09:37;;;;;;;0.85;0.50;;;7.70;99.90;;;7.10;100.00;98272.81;5045589;28;20040;-38
2024/01/26 04:12:04;;;;;;;0.98;0.60;;;7.70;99.90;;;7.11;100.00;98277.19;5039792;28;20044;-38
2024/01/26 04:14:30;;;;;;;0.60;0.60;;;7.70;99.90;;;7.16;100.00;98274.50;5047962;28;21501;-38
2024/01/26 04:16:55;;;;;;;0.93;0.63;;;7.70;99.90;;;7.16;100.00;98259.66;5046435;28;20032;-39
2024/01/26 04:19:21;;;;;;;0.95;0.63;;;7.70;99.90;;;7.20;100.00;98260.50;5039665;28;20464;-38
2024/01/26 04:21:49;;;;;;;0.75;0.70;;;7.80;99.90;;;7.19;100.00;98256.13;5035527;28;20086;-39
2024/01/26 04:24:15;;;;;;;2.05;0.52;;;7.80;99.90;;;7.21;100.00;98270.09;5040353;28;20024;-39
2024/01/26 04:26:41;;;;;;;0.55;0.55;;;7.80;99.90;;;7.23;100.00;98263.06;5034999;28;20174;-40
2024/01/26 04:29:07;;;;;;;0.77;0.60;;;7.80;99.90;;;7.21;100.00;98259.59;5040127;28;20028;-38
2024/01/26 04:31:33;;;;;;;1.00;0.60;;;7.80;99.90;;;7.23;100.00;98257.81;5039093;28;20873;-39
2024/01/26 04:33:59;;;;;;;1.10;0.75;;;7.80;99.90;;;7.21;100.00;98257.84;5036959;28;20481;-38
2024/01/26 04:36:24;;;;;;;0.60;0.60;;;7.80;99.90;;;7.18;100.00;98250.00;5039096;28;20047;-39
2024/01/26 04:38:50;;;;;;;0.77;0.50;;;7.80;99.90;;;7.17;100.00;98244.78;5045014;28;20028;-39
2024/01/26 04:41:16;;;;;;;0.90;0.70;;;7.80;99.90;;;7.16;100.00;98235.16;5032826;28;20074;-39
2024/01/26 04:43:43;;;;;;;1.27;0.57;;;7.80;99.90;;;7.14;100.00;98226.44;5043535;28;20401;-38
2024/01/26 04:46:08;;;;;;;1.08;0.70;;;7.70;99.90;;;7.14;100.00;98222.06;5040217;28;20032;-38
2024/01/26 04:48:34;;;;;;;1.05;0.70;;;7.70;99.90;;;7.06;100.00;98211.63;5043306;28;20956;-38
2024/01/26 04:51:00;;;;;;;0.75;0.60;;;7.70;99.90;;;7.12;100.00;98225.56;5042389;28;20044;-38
2024/01/26 04:53:25;;;;;;;0.73;0.73;;;7.70;99.90;;;7.10;100.00;98232.59;5040900;28;20036;-38
2024/01/26 04:55:51;;;;;;;0.70;0.57;;;7.70;99.90;;;7.09;100.00;98231.75;5044991;28;20098;-39
2024/01/26 04:58:17;;;;;;;0.93;0.70;;;7.70;99.90;;;6.97;100.00;98209.09;5040509;28;20029;-38
2024/01/26 05:00:43;;;;;;;2.03;0.70;;;7.70;99.90;;;7.06;100.00;98223.88;5046704;28;20032;-38
2024/01/26 05:03:08;;;;;;;1.20;0.70;;;7.70;99.90;;;7.07;100.00;98239.63;5046495;28;20093;-38
2024/01/26 05:05:34;;;;;;;0.65;0.55;;;7.70;99.90;;;7.10;100.00;98235.22;5048206;28;20412;-38
2024/01/26 05:08:00;;;;;;;1.60;0.93;;;7.70;99.90;;;7.13;100.00;98232.56;5050828;28;20036;-38
2024/01/26 05:10:26;;;;;;;1.02;0.70;;;7.70;99.90;;;7.15;100.00;98238.69;5043205;28;20123;-38
2024/01/26 05:12:51;;;;;;;1.75;0.85;;;7.80;99.90;;;7.18;100.00;98242.13;5046835;28;20041;-38
2024/01/26 05:15:17;;;;;;;3.05;0.90;;;7.80;99.90;;;7.19;100.00;98250.88;5041500;28;20388;-39
2024/01/26 05:17:43;;;;;;;1.05;0.70;;;7.80;99.90;;;7.22;100.00;98235.97;5044204;28;20036;-38
2024/01/26 05:20:09;;;;;;;0.77;0.73;;;7.80;99.90;;;7.24;100.00;98241.19;5046772;28;20031;-39
2024/01/26 05:22:34;;;;;;;1.00;0.80;;;7.90;99.90;;;7.19;100.00;98219.38;5050793;28;20419;-39
2024/01/26 05:25:00;;;;;;;1.35;0.80;;;7.90;99.90;;;7.21;100.00;98221.13;5050232;28;20512;-39
2024/01/26 05:27:26;;;;;;;1.08;0.60;;;7.90;99.90;;;7.39;100.00;98242.78;5043603;28;20040;-38
2024/01/26 05:29:52;;;;;;;1.83;1.05;;;8.00;99.90;;;7.37;100.00;98228.81;5047151;28;20016;-37
2024/01/26 05:32:19;;;;;;;0.93;0.80;;;8.00;99.90;;;7.45;100.00;98238.34;5042731;28;20032;-39
2024/01/26 05:34:45;;;;;;;0.70;0.70;;;8.00;99.90;;;7.35;100.00;98213.09;5052805;28;20334;-38
2024/01/26 05:37:11;;;;;;;1.63;0.65;;;8.10;99.90;;;7.48;100.00;98226.94;5050267;28;20377;-39
2024/01/26 05:39:36;;;;;;;2.50;0.73;;;8.10;99.90;;;7.49;100.00;98228.69;5041387;28;20032;-39
2024/01/26 05:42:02;;;;;;;2.72;1.15;;;8.10;99.90;;;7.50;100.00;98222.56;5045354;28;20140;-40
2024/01/26 05:44:28;;;;;;;1.73;0.80;;;8.10;99.90;;;7.55;100.00;98227.75;5040723;28;20038;-38
2024/01/26 05:46:53;;;;;;;0.43;0.43;;;8.10;99.90;;;7.54;100.00;98220.78;5045195;28;20460;-38
2024/01/26 05:49:19;;;;;;;2.13;0.77;;;8.20;99.90;;;7.55;100.00;98209.38;5042843;28;20119;-39
2024/01/26 05:51:45;;;;;;;1.77;0.70;;;8.20;99.90;;;7.60;100.00;98223.31;5047750;28;20063;-38
2024/01/26 05:54:12;;;;;;;0.85;0.73;;;8.20;99.90;;;7.60;100.00;98218.91;5049386;28;20036;-39
2024/01/26 05:56:41;;;;;;;1.23;0.90;;;8.20;99.90;;;7.61;100.00;98218.06;5043450;28;20082;-38
2024/01/26 05:59:07;;;;;;;0.90;0.70;;;8.20;99.90;;;7.59;100.00;98214.56;5047440;28;20024;-38
2024/01/26 06:01:34;;;;;;;1.75;1.00;;;8.20;99.90;;;7.53;100.00;98211.16;5043032;28;20071;-38
2024/01/26 06:04:01;;;;;;;2.00;1.00;;;8.10;99.90;;;7.50;100.00;98214.69;5044516;28;20482;-38
2024/01/26 06:06:27;;;;;;;1.48;0.70;;;8.10;99.90;;;7.34;100.00;98206.13;5045726;28;20048;-38
2024/01/26 06:08:52;;;;;;;1.08;0.70;;;8.00;99.90;;;7.36;100.00;98217.47;5049004;28;20063;-39
2024/01/26 06:11:20;;;;;;;0.80;0.60;;;8.00;99.90;;;7.34;100.00;98224.50;5040563;28;20118;-38
2024/01/26 06:13:46;;;;;;;3.40;0.90;;;7.90;99.90;;;7.34;100.00;98229.72;5048480;28;20078;-38
2024/01/26 06:16:14;;;;;;;5.53;0.70;;;7.90;99.90;;;7.25;100.00;98233.31;5046020;28;20453;-40
2024/01/26 06:18:40;;;;;;;1.20;0.60;;;7.90;99.90;;;7.33;100.00;98232.38;5042040;28;20315;-38
2024/01/26 06:21:06;;;;;;;2.33;0.90;;;7.90;99.90;;;7.31;100.00;98236.78;5041648;28;20032;-40
2024/01/26 06:23:31;;;;;;;1.73;0.80;;;7.90;99.90;;;7.08;100.00;98201.13;5045804;28;20032;-40
2024/01/26 06:25:57;;;;;;;1.00;0.68;;;7.90;99.90;;;7.32;100.00;98239.38;5043038;28;20415;-38
2024/01/26 06:28:23;;;;;;;1.23;0.90;;;7.90;99.90;;;7.30;100.00;98214.03;5051215;28;20118;-38
2024/01/26 06:30:48;;;;;;;1.17;0.70;;;7.90;99.90;;;7.36;100.00;98219.22;5044173;28;20175;-38
2024/01/26 06:33:14;;;;;;;1.33;0.70;;;8.00;99.90;;;7.43;100.00;98229.63;5058396;28;20047;-38
2024/01/26 06:35:40;;;;;;;0.75;0.60;;;8.00;99.90;;;7.51;100.00;98233.94;5038123;28;20047;-38
2024/01/26 06:38:06;;;;;;;6.30;1.00;;;8.10;99.90;;;7.60;100.00;98239.94;5046934;28;20070;-38
2024/01/26 06:40:31;;;;;;;0.95;0.52;;;8.20;99.90;;;7.64;100.00;98241.66;5043724;28;20024;-38
2024/01/26 06:42:57;;;;;;;0.95;0.70;;;8.20;99.90;;;7.69;100.00;98240.72;5047471;28;20032;-38
2024/01/26 06:45:23;;;;;;;1.45;1.00;;;8.30;99.90;;;7.75;100.00;98230.13;5043681;28;20378;-39
2024/01/26 06:47:48;;;;;;;3.42;0.60;;;8.30;99.90;;;7.80;100.00;98237.06;5041595;28;20029;-38
2024/01/26 06:50:14;;;;;;;3.97;0.82;;;8.40;99.90;;;7.88;100.00;98239.59;5044300;28;20109;-38
2024/01/26 06:52:40;;;;;;;1.08;0.60;;;8.40;99.90;;;7.86;100.00;98230.00;5044906;28;20036;-38
2024/01/26 06:55:06;;;;;;;2.55;0.80;;;8.50;99.90;;;7.80;100.00;98221.28;5047804;28;20044;-39
2024/01/26 06:57:31;;;;;;;1.48;0.77;;;8.50;99.90;;;7.87;100.00;98245.72;5041031;28;20119;-39
2024/01/26 06:59:57;;;;;;;0.77;0.68;;;8.50;99.90;;;7.89;100.00;98248.34;5047972;28;20025;-39
2024/01/26 07:02:23;;;;;;;0.98;0.60;;;8.50;99.90;;;7.92;100.00;98241.28;5043932;28;20043;-39
2024/01/26 07:04:49;;;;;;;0.95;0.60;;;8.50;99.90;;;7.96;100.00;98248.25;5043000;28;20049;-38
2024/01/26 07:07:15;;;;;;;1.95;0.70;;;8.60;99.90;;;8.02;100.00;98249.91;5045716;28;20478;-39
2024/01/26 07:09:40;;;;;;;1.52;0.60;;;8.60;99.90;;;8.09;100.00;98248.94;5040362;28;20489;-39
2024/01/26 07:12:06;;;;;;;1.52;0.80;;;8.60;99.90;;;8.06;100.00;98245.50;5042850;28;20024;-39
2024/01/26 07:14:32;;;;;;;1.38;0.90;;;8.70;99.90;;;8.12;100.00;98235.78;5043665;28;20334;-39
2024/01/26 07:16:58;;;;;;;2.53;0.50;;;8.70;99.90;;;8.13;100.00;98234.91;5046167;28;20087;-38
2024/01/26 07:19:23;;;;;;;2.85;0.70;;;8.70;99.90;;;8.20;100.00;98240.91;5044883;28;20020;-40
2024/01/26 07:21:49;;;;;;;2.15;0.70;;;8.80;99.90;;;8.27;100.00;98242.56;5040466;28;20028;-39
2024/01/26 07:24:15;;;;;;;1.08;0.50;;;8.80;99.90;;;8.33;100.00;98242.50;5047482;28;20036;-38
2024/01/26 07:26:41;;;;;;;1.88;0.65;;;8.90;99.90;;;8.36;100.00;98241.56;5049673;28;20249;-38
2024/01/26 07:29:07;;;;;;;0.95;0.55;;;8.90;99.90;;;8.42;100.00;98231.00;5051277;28;20032;-38
2024/01/26 07:31:32;;;;;;;2.60;0.65;;;9.00;99.90;;;8.43;100.00;98226.63;5045000;28;20293;-40
2024/01/26 07:33:58;;;;;;;2.53;0.90;;;9.00;99.90;;;8.42;100.00;98215.25;5050712;28;20138;-39
2024/01/26 07:36:24;;;;;;;1.10;0.60;;;9.00;99.90;;;8.46;100.00;98221.31;5048141;28;20033;-39
2024/01/26 07:38:49;;;;;;;2.75;0.70;;;9.00;99.90;;;8.44;100.00;98207.34;5046270;28;20111;-40
2024/01/26 07:41:15;;;;;;;1.73;0.82;;;9.10;99.90;;;8.51;100.00;98219.50;5051595;28;20036;-38
2024/01/26 07:43:41;;;;;;;0.45;0.43;;;9.10;99.90;;;8.52;100.00;98215.94;5048925;28;20060;-38
2024/01/26 07:46:06;;;;;;;1.00;0.60;;;9.10;99.90;;;8.56;100.00;98222.88;5043870;28;20036;-38
2024/01/26 07:48:32;;;;;;;1.75;0.68;;;9.10;99.90;;;8.60;100.00;98227.22;5049498;28;20032;-38
2024/01/26 07:50:58;;;;;;;1.10;0.70;;;9.20;99.90;;;8.65;100.00;98230.66;5049855;28;20035;-38
2024/01/26 07:53:23;;;;;;;1.25;0.60;;;9.20;99.90;;;8.74;100.00;98229.63;5048386;28;20024;-38
2024/01/26 07:55:50;;;;;;;1.63;0.70;;;9.30;99.90;;;8.77;100.00;98225.22;5045305;28;20102;-38
2024/01/26 07:58:16;;;;;;;0.70;0.57;;;9.40;99.90;;;8.83;100.00;98218.97;5049471;28;20039;-38
2024/01/26 08:00:42;;;;;;;3.10;0.60;;;9.40;99.90;;;8.86;100.00;98213.63;5047064;28;20029;-39
2024/01/26 08:03:07;;;;;;;0.80;0.60;;;9.40;99.90;;;8.93;100.00;98212.63;5046672;28;20040;-39
2024/01/26 08:05:33;;;;;;;1.00;0.68;;;9.40;99.90;;;9.00;100.00;98199.38;5046466;28;20439;-40
2024/01/26 08:07:59;;;;;;;0.63;0.50;;;9.50;99.90;;;9.05;100.00;98205.44;5051748;28;20119;-38
2024/01/26 08:10:25;;;;;;;0.43;0.43;;;9.60;99.90;;;9.09;100.00;98210.59;5047259;28;20040;-39
2024/01/26 08:12:51;;;;;;;1.45;0.60;;;9.60;99.90;;;9.10;100.00;98191.31;5046932;28;20036;-39
2024/01/26 08:15:17;;;;;;;1.10;0.70;;;9.70;99.90;;;9.20;100.00;98205.16;5044733;28;20119;-39
2024/01/26 08:17:42;;;;;;;1.85;0.88;;;9.70;99.90;;;9.22;100.00;98208.59;5045457;28;20064;-39
2024/01/26 08:20:09;;;;;;;0.90;0.60;;;9.70;99.90;;;9.24;100.00;98201.59;5044787;28;20418;-38
2024/01/26 08:22:35;;;;;;;1.88;0.60;;;9.70;99.90;;;9.25;100.00;98211.19;5050634;28;20074;-38
2024/01/26 08:25:01;;;;;;;2.75;0.57;;;9.70;99.90;;;9.27;100.00;98214.66;5051665;28;20032;-39
2024/01/26 08:27:27;;;;;;;1.25;0.50;;;9.80;99.90;;;9.30;100.00;98208.50;5048188;28;20044;-39
2024/01/26 08:29:53;;;;;;;1.55;0.88;;;9.80;99.90;;;9.31;100.00;98205.84;5046627;28;20056;-39
2024/01/26 08:32:19;;;;;;;1.33;0.80;;;9.80;99.90;;;9.33;100.00;98206.66;5050275;28;20315;-39
2024/01/26 08:34:44;;;;;;;1.05;0.60;;;9.80;99.90;;;9.36;100.00;98201.31;5045187;28;20587;-38
2024/01/26 08:37:11;;;;;;;1.88;1.10;;;9.90;99.90;;;9.25;100.00;98176.97;5042834;28;20477;-39
2024/01/26 08:39:37;;;;;;;3.15;0.80;;;9.90;99.90;;;9.31;100.00;98190.03;5046264;28;20098;-40
2024/01/26 08:42:03;;;;;;;0.93;0.60;;;9.90;99.90;;;9.31;100.00;98182.16;5050259;28;20032;-40
2024/01/26 08:44:32;;;;;;;1.85;0.80;;;9.90;99.90;;;9.34;100.00;98173.31;5047575;28;20080;-39
2024/01/26 08:46:58;;;;;;;1.90;0.80;;;9.90;99.90;;;9.33;100.00;98158.41;5047486;28;20500;-39
2024/01/26 08:49:24;;;;;;;1.67;0.77;;;9.90;99.90;;;9.39;100.00;98157.44;5039096;28;20052;-41
2024/01/26 08:51:51;;;;;;;1.92;0.73;;;9.90;99.90;;;9.31;100.00;98133.88;5046721;28;20454;-40
2024/01/26 08:54:18;;;;;;;1.73;0.73;;;9.90;99.90;;;9.39;100.00;98131.97;5048519;28;20029;-38
2024/01/26 08:56:45;;;;;;;1.92;0.80;;;10.00;99.90;;;9.34;100.00;98118.88;5057535;28;20397;-39
2024/01/26 08:59:11;;;;;;;1.50;0.60;;;10.00;99.90;;;9.52;100.00;98125.53;5054479;28;20028;-38
2024/01/26 09:01:38;;;;;;;1.77;0.80;;;10.10;99.90;;;9.63;100.00;98130.56;5048627;28;20038;-38
2024/01/26 09:04:08;;;;;;;1.02;0.80;;;10.10;99.90;;;9.57;100.00;98112.28;5056156;28;20048;-38
2024/01/26 09:06:37;;;;;;;2.10;0.60;;;10.20;99.90;;;9.72;100.00;98119.81;5052726;28;20092;-38
2024/01/26 09:09:03;;;;;;;2.17;1.13;;;10.30;99.90;;;9.78;100.00;98112.69;5051916;28;20515;-38
2024/01/26 09:11:30;;;;;;;1.00;0.70;;;10.40;99.90;;;9.83;100.00;98105.56;5049455;28;20140;-39
2024/01/26 09:13:59;;;;;;;2.17;0.75;;;10.40;99.90;;;9.91;100.00;98103.63;5067613;28;20098;-38
2024/01/26 09:16:24;;;;;;;1.70;0.70;;;10.50;99.90;;;9.88;100.00;98104.53;5049174;28;20040;-38
2024/01/26 09:18:50;;;;;;;2.40;0.80;;;10.50;99.90;;;9.97;100.00;98103.47;5053331;28;20028;-39
2024/01/26 09:21:17;;;;;;;1.98;0.98;;;10.50;99.90;;;10.05;100.00;98105.91;5050648;28;20036;-38
2024/01/26 09:23:43;;;;;;;1.42;0.70;;;10.60;99.90;;;10.04;100.00;98117.38;5053414;28;20084;-38
2024/01/26 09:26:10;;;;;;;1.17;0.85;;;10.60;99.90;;;10.03;100.00;98120.91;5053584;28;20028;-38
2024/01/26 09:28:36;;;;;;;1.25;0.80;;;10.60;99.90;;;10.09;100.00;98123.41;5050786;28;20043;-38
2024/01/26 09:31:02;;;;;;;2.45;0.85;;;10.70;99.90;;;10.12;100.00;98125.97;5050523;28;20283;-38
2024/01/26 09:33:28;;;;;;;0.57;0.57;;;10.70;99.90;;;10.12;100.00;98124.22;5066042;28;20119;-38
2024/01/26 09:35:56;;;;;;;2.10;0.70;;;10.70;99.90;;;10.06;100.00;98132.25;5052048;28;20151;-38
2024/01/26 09:38:22;;;;;;;1.67;1.05;;;10.60;99.90;;;10.04;100.00;98130.56;5048654;28;20480;-38
2024/01/26 09:40:48;;;;;;;1.30;0.77;;;10.60;99.90;;;9.97;100.00;98126.34;5046143;28;20056;-38
2024/01/26 09:43:14;;;;;;;1.85;1.00;;;10.60;99.90;;;10.00;100.00;98135.03;5051672;28;20103;-39
2024/01/26 09:45:39;;;;;;;1.00;0.60;;;10.50;99.90;;;10.01;100.00;98134.13;5052276;28;20086;-38
2024/01/26 09:48:05;;;;;;;2.10;0.80;;;10.60;99.90;;;10.05;100.00;98133.16;5047355;28;20595;-38
2024/01/26 09:50:32;;;;;;;3.90;0.80;;;10.60;99.90;;;10.08;100.00;98122.53;5046719;28;20032;-38
2024/01/26 09:53:03;;;;;;;0.77;0.60;;;10.60;99.90;;;10.10;100.00;98133.03;5052611;28;21297;-38
2024/01/26 09:55:32;;;;;;;1.65;0.60;;;10.70;99.90;;;10.13;100.00;98125.94;5048342;28;20047;-39
2024/01/26 09:57:58;;;;;;;1.70;0.80;;;10.70;99.90;;;10.15;100.00;98127.66;5040853;28;20039;-39
2024/01/26 10:00:24;;;;;;;1.17;0.68;;;10.80;99.90;;;10.22;100.00;98124.84;5069321;28;20094;-39
2024/01/26 10:02:50;;;;;;;1.50;0.77;;;10.80;99.90;;;10.30;100.00;98135.19;5053083;28;20386;-39
2024/01/26 10:05:20;;;;;;;1.48;0.75;;;10.90;99.90;;;10.36;100.00;98124.56;5052743;28;20094;-39
2024/01/26 10:07:46;;;;;;;1.70;0.70;;;10.90;99.90;;;10.38;100.00;98122.75;5050029;28;20032;-39
2024/01/26 10:10:13;;;;;;;1.42;0.75;;;11.00;99.90;;;10.46;100.00;98123.44;5049884;28;20033;-40
2024/01/26 10:12:41;;;;;;;1.35;0.88;;;11.00;99.90;;;10.50;100.00;98124.22;5051460;28;20504;-40
2024/01/26 10:15:11;;;;;;;2.60;2.00;;;11.10;99.90;;;10.61;100.00;98139.78;5052919;28;20067;-39
2024/01/26 10:17:37;;;;;;;2.10;1.00;;;11.10;99.90;;;10.66;100.00;98135.25;5045837;28;20032;-39
2024/01/26 10:20:14;;;;;;;1.48;0.70;;;11.30;99.90;;;10.77;100.00;98129.69;5041584;28;20029;-40